createdAt,value
2023-02-16T00:01:48.961Z,101874.22
2023-02-16T00:04:51.529Z,101876.84
2023-02-16T00:07:55.564Z,101875.09
2023-02-16T00:11:27.303Z,101877.72
2023-02-16T00:14:31.912Z,101874.19
2023-02-16T00:17:34.525Z,101865.41
2023-02-16T00:20:37.143Z,101865.44
2023-02-16T00:23:39.777Z,101861.00
2023-02-16T00:26:42.873Z,101868.03
2023-02-16T00:29:46.804Z,101870.75
2023-02-16T00:32:49.441Z,101868.16
2023-02-16T00:35:52.044Z,101872.53
2023-02-16T00:38:54.629Z,101861.13
2023-02-16T00:42:01.065Z,101854.97
2023-02-16T00:45:06.576Z,101859.38
2023-02-16T00:48:09.924Z,101858.53
2023-02-16T00:51:25.204Z,101850.63
2023-02-16T00:54:30.886Z,101855.84
2023-02-16T00:57:38.746Z,101854.97
2023-02-16T01:00:45.370Z,101842.69
2023-02-16T01:03:48.073Z,101847.09
2023-02-16T01:07:08.362Z,101836.56
2023-02-16T01:10:29.196Z,101840.94
2023-02-16T01:13:34.080Z,101837.47
2023-02-16T01:16:40.922Z,101841.84
2023-02-16T01:19:43.528Z,101837.44
2023-02-16T01:22:46.201Z,101838.34
2023-02-16T01:25:48.808Z,101843.59
2023-02-16T01:28:51.512Z,101845.34
2023-02-16T01:31:55.923Z,101840.97
2023-02-16T01:34:58.640Z,101827.78
2023-02-16T01:38:01.481Z,101836.56
2023-02-16T01:41:09.169Z,101840.03
2023-02-16T01:44:15.964Z,101830.38
2023-02-16T01:47:33.911Z,101830.38
2023-02-16T01:50:46.908Z,101820.75
2023-02-16T01:53:53.293Z,101826.00
2023-02-16T01:57:01.559Z,101828.59
2023-02-16T02:00:23.551Z,101825.13
2023-02-16T02:03:46.810Z,101814.56
2023-02-16T02:06:49.524Z,101804.91
2023-02-16T02:10:03.676Z,101817.19
2023-02-16T02:13:12.400Z,101824.16
2023-02-16T02:16:19.249Z,101819.00
2023-02-16T02:19:23.451Z,101825.09
2023-02-16T02:23:26.520Z,101824.19
2023-02-16T02:26:57.171Z,101827.69
2023-02-16T02:30:26.644Z,101821.63
2023-02-16T02:33:42.009Z,101822.47
2023-02-16T02:36:52.295Z,101816.28
2023-02-16T02:40:06.319Z,101812.88
2023-02-16T02:43:18.600Z,101820.69
2023-02-16T02:46:27.208Z,101815.47
2023-02-16T02:49:29.881Z,101817.25
2023-02-16T02:52:32.521Z,101814.63
2023-02-16T02:55:57.786Z,101817.19
2023-02-16T02:59:24.418Z,101811.94
2023-02-16T03:02:29.472Z,101810.25
2023-02-16T03:05:34.775Z,101800.63
2023-02-16T03:08:41.314Z,101802.34
2023-02-16T03:12:03.829Z,101801.50
2023-02-16T03:15:08.969Z,101797.97
2023-02-16T03:18:31.019Z,101791.00
2023-02-16T03:21:52.738Z,101789.22
2023-02-16T03:25:13.052Z,101779.66
2023-02-16T03:28:34.840Z,101793.56
2023-02-16T03:31:40.167Z,101788.31
2023-02-16T03:34:43.094Z,101783.91
2023-02-16T03:37:46.180Z,101795.31
2023-02-16T03:40:51.260Z,101799.72
2023-02-16T03:43:53.897Z,101792.66
2023-02-16T03:46:57.893Z,101789.19
2023-02-16T03:50:00.471Z,101776.94
2023-02-16T03:53:07.772Z,101789.25
2023-02-16T03:56:10.498Z,101777.81
2023-02-16T03:59:13.147Z,101779.53
2023-02-16T04:02:17.160Z,101776.97
2023-02-16T04:05:20.250Z,101775.19
2023-02-16T04:08:22.998Z,101769.91
2023-02-16T04:11:43.111Z,101772.53
2023-02-16T04:14:45.688Z,101770.00
2023-02-16T04:17:50.280Z,101762.03
2023-02-16T04:20:53.958Z,101746.31
2023-02-16T04:23:57.684Z,101754.19
2023-02-16T04:27:00.278Z,101746.25
2023-02-16T04:30:03.250Z,101750.66
2023-02-16T04:33:07.188Z,101750.66
2023-02-16T04:36:10.793Z,101756.69
2023-02-16T04:39:13.430Z,101755.94
2023-02-16T04:42:16.076Z,101754.28
2023-02-16T04:45:18.869Z,101761.25
2023-02-16T04:48:22.855Z,101763.03
2023-02-16T04:51:25.697Z,101751.56
2023-02-16T04:54:28.522Z,101748.00
2023-02-16T04:57:31.228Z,101753.34
2023-02-16T05:00:36.259Z,101762.97
2023-02-16T05:03:40.506Z,101751.56
2023-02-16T05:06:43.683Z,101748.94
2023-02-16T05:09:46.298Z,101757.69
2023-02-16T05:13:06.488Z,101755.91
2023-02-16T05:16:09.132Z,101759.44
2023-02-16T05:19:13.572Z,101757.75
2023-02-16T05:22:16.737Z,101755.00
2023-02-16T05:25:19.462Z,101749.75
2023-02-16T05:28:22.074Z,101756.78
2023-02-16T05:31:25.847Z,101761.97
2023-02-16T05:34:29.887Z,101754.16
2023-02-16T05:37:32.487Z,101754.09
2023-02-16T05:40:35.090Z,101748.84
2023-02-16T05:43:37.808Z,101744.53
2023-02-16T05:46:42.236Z,101747.19
2023-02-16T05:49:46.149Z,101754.19
2023-02-16T05:52:48.730Z,101762.03
2023-02-16T05:55:51.562Z,101757.66
2023-02-16T05:58:54.686Z,101762.84
2023-02-16T06:01:57.285Z,101764.69
2023-02-16T06:05:01.268Z,101766.38
2023-02-16T06:08:03.888Z,101773.41
2023-02-16T06:11:27.129Z,101770.81
2023-02-16T06:14:29.716Z,101768.19
2023-02-16T06:17:32.277Z,101767.25
2023-02-16T06:20:36.213Z,101766.44
2023-02-16T06:23:38.922Z,101750.63
2023-02-16T06:26:42.134Z,101747.16
2023-02-16T06:29:44.770Z,101759.44
2023-02-16T06:32:47.552Z,101754.13
2023-02-16T06:35:51.516Z,101755.03
2023-02-16T06:38:54.090Z,101755.91
2023-02-16T06:41:56.682Z,101757.72
2023-02-16T06:44:59.253Z,101755.09
2023-02-16T06:48:01.843Z,101745.47
2023-02-16T06:51:06.831Z,101742.84
2023-02-16T06:54:09.818Z,101749.84
2023-02-16T06:57:12.414Z,101741.84
2023-02-16T07:00:16.581Z,101761.19
2023-02-16T07:03:19.202Z,101776.09
2023-02-16T07:06:25.050Z,101769.97
2023-02-16T07:09:27.763Z,101761.16
2023-02-16T07:12:30.402Z,101758.44
2023-02-16T07:15:33.170Z,101774.13
2023-02-16T07:18:35.920Z,101760.94
2023-02-16T07:21:39.886Z,101755.69
2023-02-16T07:24:42.472Z,101751.25
2023-02-16T07:27:45.164Z,101747.69
2023-02-16T07:30:47.749Z,101754.81
2023-02-16T07:33:50.329Z,101754.69
2023-02-16T07:36:54.280Z,101745.09
2023-02-16T07:39:56.882Z,101745.13
2023-02-16T07:43:01.090Z,101752.25
2023-02-16T07:46:03.716Z,101747.75
2023-02-16T07:49:06.397Z,101749.53
2023-02-16T07:52:10.414Z,101765.41
2023-02-16T07:55:13.087Z,101754.91
2023-02-16T07:58:27.033Z,101751.47
2023-02-16T08:01:30.924Z,101764.69
2023-02-16T08:04:33.600Z,101750.69
2023-02-16T08:07:37.524Z,101745.34
2023-02-16T08:10:40.119Z,101748.69
2023-02-16T08:13:43.317Z,101749.53
2023-02-16T08:16:45.917Z,101752.16
2023-02-16T08:19:48.522Z,101755.75
2023-02-16T08:22:54.791Z,101764.41
2023-02-16T08:25:59.019Z,101759.91
2023-02-16T08:29:02.148Z,101763.47
2023-02-16T08:32:07.655Z,101752.09
2023-02-16T08:35:10.453Z,101752.06
2023-02-16T08:38:14.406Z,101746.78
2023-02-16T08:41:17.242Z,101755.59
2023-02-16T08:44:21.777Z,101753.91
2023-02-16T08:47:24.511Z,101741.63
2023-02-16T08:50:27.166Z,101744.06
2023-02-16T08:53:33.147Z,101755.63
2023-02-16T08:56:36.487Z,101748.47
2023-02-16T08:59:39.108Z,101742.28
2023-02-16T09:02:41.886Z,101745.72
2023-02-16T09:05:44.518Z,101737.84
2023-02-16T09:08:52.563Z,101735.97
2023-02-16T09:11:55.471Z,101728.13
2023-02-16T09:14:58.258Z,101727.78
2023-02-16T09:18:00.892Z,101728.66
2023-02-16T09:21:06.734Z,101723.44
2023-02-16T09:24:11.928Z,101731.06
2023-02-16T09:27:14.531Z,101742.78
2023-02-16T09:30:18.597Z,101743.47
2023-02-16T09:33:21.722Z,101758.31
2023-02-16T09:36:24.844Z,101750.38
2023-02-16T09:39:29.510Z,101761.69
2023-02-16T09:42:43.067Z,101749.13
2023-02-16T09:45:53.186Z,101746.88
2023-02-16T09:48:56.927Z,101756.56
2023-02-16T09:52:07.093Z,101765.25
2023-02-16T09:55:14.662Z,101778.19
2023-02-16T09:58:22.102Z,101778.03
2023-02-16T10:01:32.437Z,101778.56
2023-02-16T10:04:46.187Z,101784.63
2023-02-16T10:07:57.693Z,101767.13
2023-02-16T10:11:29.571Z,101770.75
2023-02-16T10:14:37.115Z,101776.97
2023-02-16T10:17:45.987Z,101778.50
2023-02-16T10:20:53.187Z,101780.41
2023-02-16T10:23:59.286Z,101778.63
2023-02-16T10:27:08.876Z,101786.41
2023-02-16T10:30:15.212Z,101787.94
2023-02-16T10:33:29.900Z,101780.88
2023-02-16T10:36:49.902Z,101776.16
2023-02-16T10:40:02.904Z,101773.50
2023-02-16T10:43:16.763Z,101772.19
2023-02-16T10:46:24.643Z,101772.03
2023-02-16T10:49:28.175Z,101786.19
2023-02-16T10:52:35.158Z,101768.59
2023-02-16T10:55:38.640Z,101781.19
2023-02-16T10:58:43.987Z,101780.69
2023-02-16T11:01:48.648Z,101773.13
2023-02-16T11:04:53.078Z,101777.50
2023-02-16T11:07:57.626Z,101771.00
2023-02-16T11:11:10.496Z,101780.34
2023-02-16T11:14:23.173Z,101773.53
2023-02-16T11:17:26.964Z,101773.53
2023-02-16T11:20:32.093Z,101766.63
2023-02-16T11:23:36.115Z,101761.13
2023-02-16T11:26:38.999Z,101764.69
2023-02-16T11:29:42.961Z,101775.34
2023-02-16T11:32:45.694Z,101775.47
2023-02-16T11:35:48.904Z,101771.72
2023-02-16T11:39:00.637Z,101760.22
2023-02-16T11:42:07.692Z,101751.47
2023-02-16T11:45:25.633Z,101749.88
2023-02-16T11:48:31.210Z,101760.38
2023-02-16T11:51:36.354Z,101754.09
2023-02-16T11:54:48.539Z,101757.38
2023-02-16T11:57:51.689Z,101766.50
2023-02-16T12:01:06.697Z,101762.03
2023-02-16T12:04:24.221Z,101752.09
2023-02-16T12:07:34.384Z,101756.75
2023-02-16T12:10:42.066Z,101759.13
2023-02-16T12:13:50.216Z,101751.09
2023-02-16T12:17:03.947Z,101742.69
2023-02-16T12:20:17.132Z,101753.88
2023-02-16T12:23:32.515Z,101745.78
2023-02-16T12:26:42.400Z,101738.88
2023-02-16T12:29:55.695Z,101735.19
2023-02-16T12:33:15.802Z,101736.84
2023-02-16T12:36:38.481Z,101729.00
2023-02-16T12:39:49.719Z,101726.44
2023-02-16T12:43:03.983Z,101726.28
2023-02-16T12:46:14.560Z,101722.09
2023-02-16T12:49:24.444Z,101719.75
2023-02-16T12:52:36.272Z,101712.44
2023-02-16T12:55:43.923Z,101715.22
2023-02-16T12:58:53.336Z,101714.34
2023-02-16T13:01:57.120Z,101715.97
2023-02-16T13:05:08.664Z,101708.00
2023-02-16T13:08:20.870Z,101709.19
2023-02-16T13:11:29.877Z,101697.53
2023-02-16T13:14:39.272Z,101698.19
2023-02-16T13:17:47.076Z,101688.41
2023-02-16T13:20:55.569Z,101698.28
2023-02-16T13:24:08.408Z,101693.94
2023-02-16T13:27:29.898Z,101688.41
2023-02-16T13:30:45.776Z,101683.09
2023-02-16T13:34:05.464Z,101682.97
2023-02-16T13:37:24.398Z,101686.25
2023-02-16T13:40:52.208Z,101667.72
2023-02-16T13:43:58.689Z,101672.25
2023-02-16T13:47:04.997Z,101659.81
2023-02-16T13:50:16.035Z,101661.63
2023-02-16T13:53:23.135Z,101653.75
2023-02-16T13:56:37.045Z,101653.81
2023-02-16T14:00:00.172Z,101651.84
2023-02-16T14:03:05.185Z,101659.84
2023-02-16T14:06:32.261Z,101653.66
2023-02-16T14:09:48.698Z,101650.91
2023-02-16T14:12:52.240Z,101662.69
2023-02-16T14:15:57.036Z,101659.94
2023-02-16T14:19:02.411Z,101661.41
2023-02-16T14:22:12.188Z,101665.19
2023-02-16T14:25:36.034Z,101658.34
2023-02-16T14:29:12.454Z,101650.88
2023-02-16T14:32:26.234Z,101646.28
2023-02-16T14:35:33.848Z,101652.44
2023-02-16T14:38:38.325Z,101642.91
2023-02-16T14:41:42.409Z,101633.41
2023-02-16T14:44:56.515Z,101640.97
2023-02-16T14:48:13.312Z,101632.59
2023-02-16T14:51:36.040Z,101633.47
2023-02-16T14:55:00.214Z,101626.09
2023-02-16T14:58:14.920Z,101637.28
2023-02-16T15:01:19.437Z,101632.31
2023-02-16T15:04:29.242Z,101630.78
2023-02-16T15:07:32.011Z,101630.72
2023-02-16T15:10:34.656Z,101631.19
2023-02-16T15:13:39.497Z,101616.22
2023-02-16T15:16:42.797Z,101616.28
2023-02-16T15:19:45.663Z,101613.16
2023-02-16T15:22:50.540Z,101609.78
2023-02-16T15:25:58.093Z,101613.97
2023-02-16T15:29:05.269Z,101615.25
2023-02-16T15:32:08.769Z,101622.84
2023-02-16T15:35:14.606Z,101633.38
2023-02-16T15:38:22.577Z,101638.81
2023-02-16T15:41:30.043Z,101641.06
2023-02-16T15:44:36.377Z,101638.25
2023-02-16T15:47:38.991Z,101629.09
2023-02-16T15:50:41.812Z,101635.41
2023-02-16T15:53:51.353Z,101649.53
2023-02-16T15:56:55.011Z,101646.88
2023-02-16T16:00:00.971Z,101651.63
2023-02-16T16:03:05.560Z,101641.19
2023-02-16T16:06:08.848Z,101643.22
2023-02-16T16:09:21.363Z,101643.47
2023-02-16T16:12:25.749Z,101633.88
2023-02-16T16:15:32.486Z,101637.59
2023-02-16T16:18:41.058Z,101641.19
2023-02-16T16:21:55.554Z,101646.03
2023-02-16T16:24:58.437Z,101643.38
2023-02-16T16:28:01.560Z,101629.97
2023-02-16T16:31:10.835Z,101631.56
2023-02-16T16:34:33.216Z,101639.31
2023-02-16T16:37:37.470Z,101636.34
2023-02-16T16:40:40.680Z,101630.09
2023-02-16T16:43:54.926Z,101635.28
2023-02-16T16:47:12.124Z,101633.94
2023-02-16T16:50:31.180Z,101623.16
2023-02-16T16:53:43.185Z,101618.03
2023-02-16T16:56:45.788Z,101617.22
2023-02-16T16:59:48.351Z,101614.31
2023-02-16T17:02:52.695Z,101601.38
2023-02-16T17:05:55.291Z,101600.28
2023-02-16T17:08:57.876Z,101604.00
2023-02-16T17:12:00.583Z,101600.41
2023-02-16T17:15:03.851Z,101590.63
2023-02-16T17:18:10.663Z,101593.47
2023-02-16T17:21:14.833Z,101596.78
2023-02-16T17:24:17.736Z,101601.19
2023-02-16T17:27:20.705Z,101609.06
2023-02-16T17:30:23.313Z,101606.25
2023-02-16T17:33:27.360Z,101613.78
2023-02-16T17:36:30.100Z,101610.19
2023-02-16T17:39:32.988Z,101604.91
2023-02-16T17:42:35.563Z,101605.81
2023-02-16T17:45:38.202Z,101597.91
2023-02-16T17:48:42.196Z,101595.94
2023-02-16T17:51:44.804Z,101583.38
2023-02-16T17:54:47.378Z,101582.31
2023-02-16T17:57:50.050Z,101595.16
2023-02-16T18:00:53.203Z,101600.53
2023-02-16T18:03:57.423Z,101603.63
2023-02-16T18:07:00.037Z,101607.06
2023-02-16T18:10:02.689Z,101601.78
2023-02-16T18:13:05.350Z,101596.56
2023-02-16T18:16:08.728Z,101592.75
2023-02-16T18:19:15.765Z,101590.06
2023-02-16T18:22:18.373Z,101597.84
2023-02-16T18:25:21.087Z,101610.13
2023-02-16T18:28:28.196Z,101614.50
2023-02-16T18:31:30.942Z,101613.72
2023-02-16T18:34:35.169Z,101610.63
2023-02-16T18:37:38.131Z,101605.06
2023-02-16T18:40:43.174Z,101604.78
2023-02-16T18:43:45.791Z,101601.19
2023-02-16T18:46:48.390Z,101608.88
2023-02-16T18:49:52.461Z,101614.22
2023-02-16T18:52:55.067Z,101611.31
2023-02-16T18:55:57.654Z,101606.09
2023-02-16T18:59:00.224Z,101613.63
2023-02-16T19:02:03.133Z,101610.59
2023-02-16T19:05:07.920Z,101608.56
2023-02-16T19:08:10.537Z,101607.47
2023-02-16T19:11:13.123Z,101598.38
2023-02-16T19:14:16.734Z,101592.28
2023-02-16T19:17:19.365Z,101590.63
2023-02-16T19:20:23.292Z,101584.84
2023-02-16T19:23:25.918Z,101582.75
2023-02-16T19:26:28.670Z,101579.88
2023-02-16T19:29:31.270Z,101578.81
2023-02-16T19:32:34.024Z,101583.63
2023-02-16T19:35:37.952Z,101580.34
2023-02-16T19:38:41.234Z,101578.69
2023-02-16T19:41:44.635Z,101569.97
2023-02-16T19:44:47.216Z,101571.88
2023-02-16T19:47:51.104Z,101574.19
2023-02-16T19:50:58.818Z,101568.13
2023-02-16T19:54:01.518Z,101556.56
2023-02-16T19:57:04.764Z,101562.59
2023-02-16T20:00:11.426Z,101555.41
2023-02-16T20:03:14.046Z,101553.59
2023-02-16T20:06:20.397Z,101543.03
2023-02-16T20:09:23.636Z,101538.66
2023-02-16T20:12:28.466Z,101534.63
2023-02-16T20:15:31.052Z,101538.97
2023-02-16T20:18:35.078Z,101533.47
2023-02-16T20:21:40.825Z,101539.63
2023-02-16T20:24:44.709Z,101525.59
2023-02-16T20:27:47.383Z,101516.09
2023-02-16T20:30:50.061Z,101518.72
2023-02-16T20:33:53.653Z,101512.06
2023-02-16T20:36:58.292Z,101507.56
2023-02-16T20:40:01.198Z,101510.50
2023-02-16T20:43:03.943Z,101496.84
2023-02-16T20:46:08.521Z,101489.97
2023-02-16T20:49:12.003Z,101482.94
2023-02-16T20:52:16.083Z,101478.59
2023-02-16T20:55:18.857Z,101474.13
2023-02-16T20:58:21.576Z,101474.63
2023-02-16T21:01:26.511Z,101466.34
2023-02-16T21:04:29.200Z,101454.53
2023-02-16T21:07:33.234Z,101445.69
2023-02-16T21:10:35.992Z,101446.31
2023-02-16T21:13:39.638Z,101438.19
2023-02-16T21:16:42.509Z,101433.03
2023-02-16T21:19:45.449Z,101432.03
2023-02-16T21:22:49.419Z,101428.78
2023-02-16T21:25:52.041Z,101434.53
2023-02-16T21:28:55.242Z,101429.78
2023-02-16T21:31:57.852Z,101427.63
2023-02-16T21:35:00.539Z,101420.53
2023-02-16T21:38:04.985Z,101424.56
2023-02-16T21:41:28.717Z,101423.06
2023-02-16T21:44:31.656Z,101413.44
2023-02-16T21:47:51.970Z,101407.03
2023-02-16T21:50:54.548Z,101398.91
2023-02-16T21:53:58.966Z,101398.38
2023-02-16T21:57:00.614Z,101381.44
2023-02-16T22:00:05.914Z,101382.25
2023-02-16T22:03:09.578Z,101375.06
2023-02-16T22:06:12.160Z,101374.63
2023-02-16T22:09:18.365Z,101375.66
2023-02-16T22:12:20.946Z,101378.94
2023-02-16T22:15:23.898Z,101370.91
2023-02-16T22:18:26.504Z,101364.06
2023-02-16T22:21:30.093Z,101366.25
2023-02-16T22:24:34.046Z,101363.91
2023-02-16T22:27:36.994Z,101367.13
2023-02-16T22:30:39.575Z,101358.28
2023-02-16T22:33:42.132Z,101364.88
2023-02-16T22:36:45.700Z,101358.13
2023-02-16T22:39:49.648Z,101343.78
2023-02-16T22:42:52.220Z,101337.13
2023-02-16T22:45:54.799Z,101334.84
2023-02-16T22:48:59.214Z,101333.44
2023-02-16T22:52:01.837Z,101322.03
2023-02-16T22:55:06.084Z,101312.03
2023-02-16T22:58:08.666Z,101314.09
2023-02-16T23:01:13.057Z,101311.09
2023-02-16T23:04:16.626Z,101318.84
2023-02-16T23:07:19.229Z,101312.22
2023-02-16T23:10:23.208Z,101308.63
2023-02-16T23:13:26.105Z,101309.31
2023-02-16T23:16:29.092Z,101306.59
2023-02-16T23:19:32.386Z,101299.88
2023-02-16T23:22:34.988Z,101300.75
2023-02-16T23:25:44.907Z,101296.25
2023-02-16T23:28:51.802Z,101289.03
2023-02-16T23:31:54.651Z,101276.72
2023-02-16T23:34:59.636Z,101287.00
2023-02-16T23:38:03.602Z,101277.50
2023-02-16T23:41:11.609Z,101274.19
2023-02-16T23:44:15.329Z,101275.97
2023-02-16T23:47:17.954Z,101272.97
2023-02-16T23:50:21.091Z,101270.56
2023-02-16T23:53:25.466Z,101270.31
2023-02-16T23:56:30.090Z,101270.38
2023-02-16T23:59:32.707Z,101260.88
